createdAt,value
2023-01-03T00:02:39.711Z,6.50
2023-01-03T00:05:42.824Z,6.50
2023-01-03T00:08:44.855Z,6.60
2023-01-03T00:12:07.613Z,6.80
2023-01-03T00:15:09.930Z,6.90
2023-01-03T00:18:11.641Z,7.00
2023-01-03T00:21:13.535Z,7.00
2023-01-03T00:24:16.113Z,7.00
2023-01-03T00:27:17.819Z,6.90
2023-01-03T00:30:19.616Z,6.90
2023-01-03T00:33:21.345Z,6.90
2023-01-03T00:36:23.074Z,6.90
2023-01-03T00:39:25.598Z,6.90
2023-01-03T00:42:27.458Z,6.90
2023-01-03T00:45:35.035Z,6.90
2023-01-03T00:48:37.523Z,6.90
2023-01-03T00:51:40.820Z,7.00
2023-01-03T00:54:42.582Z,7.00
2023-01-03T00:57:44.482Z,7.00
2023-01-03T01:00:46.265Z,7.00
2023-01-03T01:03:52.375Z,7.00
2023-01-03T01:06:57.282Z,7.00
2023-01-03T01:09:58.948Z,6.90
2023-01-03T01:13:00.710Z,6.90
2023-01-03T01:16:05.083Z,6.90
2023-01-03T01:19:06.809Z,6.80
2023-01-03T01:22:09.565Z,6.80
2023-01-03T01:25:11.228Z,6.80
2023-01-03T01:28:12.938Z,6.90
2023-01-03T01:31:17.589Z,6.90
2023-01-03T01:34:19.596Z,6.90
2023-01-03T01:37:21.275Z,7.00
2023-01-03T01:40:23.010Z,7.00
2023-01-03T01:43:43.783Z,7.00
2023-01-03T01:46:45.585Z,7.10
2023-01-03T01:49:49.667Z,7.00
2023-01-03T01:52:56.704Z,7.00
2023-01-03T01:56:05.905Z,7.00
2023-01-03T01:59:09.627Z,7.00
2023-01-03T02:02:13.072Z,7.00
2023-01-03T02:05:16.775Z,7.10
2023-01-03T02:08:18.925Z,7.00
2023-01-03T02:11:35.674Z,7.00
2023-01-03T02:14:52.297Z,7.10
2023-01-03T02:18:18.780Z,7.00
2023-01-03T02:21:52.783Z,7.10
2023-01-03T02:25:15.491Z,7.10
2023-01-03T02:28:44.916Z,7.10
2023-01-03T02:31:52.792Z,7.10
2023-01-03T02:35:21.099Z,7.10
2023-01-03T02:38:32.511Z,7.00
2023-01-03T02:41:45.536Z,7.10
2023-01-03T02:45:12.873Z,7.10
2023-01-03T02:48:57.306Z,7.00
2023-01-03T02:52:03.893Z,7.00
2023-01-03T02:55:16.081Z,7.00
2023-01-03T02:58:22.921Z,7.00
2023-01-03T03:01:26.059Z,6.90
2023-01-03T03:04:28.571Z,6.80
2023-01-03T03:07:35.087Z,6.70
2023-01-03T03:10:58.126Z,6.60
2023-01-03T03:14:12.569Z,6.60
2023-01-03T03:17:19.402Z,6.60
2023-01-03T03:20:39.656Z,6.50
2023-01-03T03:24:02.971Z,6.50
2023-01-03T03:27:28.797Z,6.40
2023-01-03T03:30:35.028Z,6.40
2023-01-03T03:33:44.278Z,6.40
2023-01-03T03:37:04.128Z,6.40
2023-01-03T03:40:25.761Z,6.40
2023-01-03T03:43:50.734Z,6.40
2023-01-03T03:47:04.176Z,6.40
2023-01-03T03:50:37.738Z,6.40
2023-01-03T03:53:43.149Z,6.50
2023-01-03T03:56:49.913Z,6.60
2023-01-03T03:59:55.406Z,6.60
2023-01-03T04:02:59.189Z,6.50
2023-01-03T04:06:05.768Z,6.50
2023-01-03T04:09:08.728Z,6.50
2023-01-03T04:12:10.484Z,6.50
2023-01-03T04:15:12.590Z,6.50
2023-01-03T04:18:14.308Z,6.50
2023-01-03T04:21:20.704Z,6.50
2023-01-03T04:24:23.155Z,6.50
2023-01-03T04:27:24.873Z,6.50
2023-01-03T04:30:26.611Z,6.40
2023-01-03T04:33:28.258Z,6.40
2023-01-03T04:36:29.983Z,6.40
2023-01-03T04:39:31.784Z,6.40
2023-01-03T04:42:52.045Z,6.50
2023-01-03T04:45:53.911Z,6.50
2023-01-03T04:48:56.025Z,6.50
2023-01-03T04:51:58.096Z,6.60
2023-01-03T04:54:59.792Z,6.60
2023-01-03T04:58:01.463Z,6.60
2023-01-03T05:01:05.020Z,6.60
2023-01-03T05:04:08.400Z,6.60
2023-01-03T05:07:10.202Z,6.60
2023-01-03T05:10:11.909Z,6.50
2023-01-03T05:13:13.551Z,6.50
2023-01-03T05:16:15.671Z,6.50
2023-01-03T05:19:19.347Z,6.50
2023-01-03T05:22:39.922Z,6.50
2023-01-03T05:25:50.887Z,6.50
2023-01-03T05:28:54.434Z,6.50
2023-01-03T05:31:56.528Z,6.50
2023-01-03T05:34:58.258Z,6.40
2023-01-03T05:37:59.933Z,6.40
2023-01-03T05:41:01.626Z,6.30
2023-01-03T05:44:03.398Z,6.30
2023-01-03T05:47:05.578Z,6.30
2023-01-03T05:50:07.640Z,6.30
2023-01-03T05:53:09.430Z,6.20
2023-01-03T05:56:11.111Z,6.20
2023-01-03T05:59:13.376Z,6.30
2023-01-03T06:02:15.208Z,6.20
2023-01-03T06:05:17.099Z,6.10
2023-01-03T06:08:18.754Z,6.10
2023-01-03T06:11:21.018Z,6.00
2023-01-03T06:14:22.807Z,6.00
2023-01-03T06:17:43.277Z,5.90
2023-01-03T06:20:44.951Z,5.80
2023-01-03T06:23:50.111Z,5.80
2023-01-03T06:26:51.794Z,5.70
2023-01-03T06:29:53.525Z,5.60
2023-01-03T06:32:55.802Z,5.50
2023-01-03T06:35:57.664Z,5.50
2023-01-03T06:38:59.330Z,5.40
2023-01-03T06:42:23.901Z,5.40
2023-01-03T06:45:44.392Z,5.40
2023-01-03T06:49:05.438Z,5.40
2023-01-03T06:52:32.608Z,5.10
2023-01-03T06:55:34.273Z,5.10
2023-01-03T06:58:36.607Z,5.00
2023-01-03T07:01:39.000Z,4.90
2023-01-03T07:04:40.816Z,4.90
2023-01-03T07:07:42.501Z,4.80
2023-01-03T07:10:44.186Z,5.00
2023-01-03T07:14:02.329Z,5.10
2023-01-03T07:17:03.978Z,5.20
2023-01-03T07:20:06.140Z,5.20
2023-01-03T07:23:07.888Z,5.20
2023-01-03T07:26:09.571Z,5.20
2023-01-03T07:29:11.842Z,5.20
2023-01-03T07:32:13.565Z,5.30
2023-01-03T07:35:15.351Z,5.30
2023-01-03T07:38:17.442Z,5.20
2023-01-03T07:41:19.298Z,5.30
2023-01-03T07:44:20.981Z,5.30
2023-01-03T07:47:22.664Z,5.40
2023-01-03T07:50:24.353Z,5.40
2023-01-03T07:53:26.655Z,5.50
2023-01-03T07:56:28.369Z,5.50
2023-01-03T07:59:30.038Z,5.60
2023-01-03T08:02:31.858Z,5.50
2023-01-03T08:05:35.603Z,5.50
2023-01-03T08:08:37.864Z,5.30
2023-01-03T08:11:58.780Z,5.10
2023-01-03T08:15:00.467Z,5.20
2023-01-03T08:18:02.188Z,5.20
2023-01-03T08:21:04.384Z,5.20
2023-01-03T08:24:06.373Z,5.20
2023-01-03T08:27:08.085Z,5.40
2023-01-03T08:30:10.413Z,5.40
2023-01-03T08:33:14.995Z,5.40
2023-01-03T08:36:17.338Z,5.50
2023-01-03T08:39:27.626Z,5.50
2023-01-03T08:42:29.747Z,5.50
2023-01-03T08:45:31.708Z,5.50
2023-01-03T08:48:34.470Z,5.50
2023-01-03T08:51:36.189Z,5.50
2023-01-03T08:54:39.290Z,5.60
2023-01-03T08:57:40.990Z,5.70
2023-01-03T09:00:42.664Z,5.70
2023-01-03T09:03:44.430Z,5.80
2023-01-03T09:06:46.195Z,6.00
2023-01-03T09:09:47.902Z,6.10
2023-01-03T09:12:49.704Z,6.20
2023-01-03T09:15:51.432Z,6.30
2023-01-03T09:18:53.109Z,6.30
2023-01-03T09:21:55.275Z,6.40
2023-01-03T09:24:57.007Z,6.50
2023-01-03T09:27:58.787Z,6.50
2023-01-03T09:31:00.826Z,6.60
2023-01-03T09:34:04.575Z,6.70
2023-01-03T09:37:06.301Z,6.70
2023-01-03T09:40:08.825Z,6.80
2023-01-03T09:43:25.796Z,6.80
2023-01-03T09:46:29.401Z,6.90
2023-01-03T09:49:31.385Z,6.90
2023-01-03T09:52:52.176Z,6.90
2023-01-03T09:56:18.201Z,6.90
2023-01-03T09:59:38.687Z,6.90
2023-01-03T10:02:59.109Z,6.90
2023-01-03T10:06:10.893Z,6.90
2023-01-03T10:09:23.919Z,6.90
2023-01-03T10:12:40.562Z,7.00
2023-01-03T10:16:11.325Z,7.10
2023-01-03T10:19:19.118Z,7.20
2023-01-03T10:22:25.949Z,7.30
2023-01-03T10:25:29.171Z,7.40
2023-01-03T10:28:40.952Z,7.50
2023-01-03T10:32:14.644Z,7.50
2023-01-03T10:35:25.082Z,7.50
2023-01-03T10:38:26.983Z,7.60
2023-01-03T10:41:48.862Z,7.80
2023-01-03T10:45:00.987Z,7.80
2023-01-03T10:48:02.793Z,7.90
2023-01-03T10:51:25.412Z,7.90
2023-01-03T10:54:31.716Z,7.90
2023-01-03T10:57:42.664Z,7.90
2023-01-03T11:00:44.464Z,7.90
2023-01-03T11:04:06.130Z,7.90
2023-01-03T11:07:13.564Z,8.10
2023-01-03T11:10:18.288Z,8.00
2023-01-03T11:13:40.406Z,8.10
2023-01-03T11:16:42.193Z,8.10
2023-01-03T11:19:44.050Z,8.10
2023-01-03T11:22:54.051Z,8.10
2023-01-03T11:25:58.771Z,8.10
2023-01-03T11:29:00.829Z,8.20
2023-01-03T11:32:39.792Z,8.20
2023-01-03T11:35:51.795Z,8.20
2023-01-03T11:39:16.360Z,8.20
2023-01-03T11:42:34.561Z,8.20
2023-01-03T11:45:58.656Z,8.20
2023-01-03T11:49:17.585Z,8.20
2023-01-03T11:52:26.281Z,8.20
2023-01-03T11:55:42.422Z,8.20
2023-01-03T11:59:06.767Z,8.20
2023-01-03T12:02:54.101Z,8.20
2023-01-03T12:06:23.698Z,8.20
2023-01-03T12:10:06.462Z,8.30
2023-01-03T12:13:38.894Z,8.30
2023-01-03T12:17:00.144Z,8.30
2023-01-03T12:20:24.292Z,8.30
2023-01-03T12:23:34.840Z,8.30
2023-01-03T12:26:41.756Z,8.40
2023-01-03T12:30:06.842Z,8.40
2023-01-03T12:33:31.017Z,8.50
2023-01-03T12:37:00.350Z,8.50
2023-01-03T12:40:10.659Z,8.60
2023-01-03T12:43:38.759Z,8.60
2023-01-03T12:46:49.188Z,8.70
2023-01-03T12:50:04.130Z,8.80
2023-01-03T12:53:23.949Z,8.90
2023-01-03T12:56:34.778Z,8.90
2023-01-03T12:59:56.446Z,8.90
2023-01-03T13:03:15.259Z,8.90
2023-01-03T13:06:23.644Z,9.00
2023-01-03T13:09:38.729Z,9.00
2023-01-03T13:12:52.822Z,9.00
2023-01-03T13:15:54.709Z,9.00
2023-01-03T13:19:16.381Z,9.00
2023-01-03T13:22:41.382Z,9.00
2023-01-03T13:25:44.103Z,9.00
2023-01-03T13:28:45.893Z,9.00
2023-01-03T13:32:04.193Z,9.10
2023-01-03T13:35:05.826Z,9.10
2023-01-03T13:38:29.814Z,9.10
2023-01-03T13:41:36.276Z,9.10
2023-01-03T13:44:38.020Z,9.10
2023-01-03T13:47:47.255Z,9.00
2023-01-03T13:51:16.148Z,9.00
2023-01-03T13:54:17.781Z,9.00
2023-01-03T13:57:34.878Z,9.00
2023-01-03T14:00:40.712Z,9.00
2023-01-03T14:04:04.020Z,9.10
2023-01-03T14:07:36.649Z,9.00
2023-01-03T14:11:12.597Z,9.10
2023-01-03T14:14:17.791Z,9.10
2023-01-03T14:17:27.136Z,9.20
2023-01-03T14:20:34.007Z,9.20
2023-01-03T14:27:16.952Z,9.30
2023-01-03T14:30:22.011Z,9.30
2023-01-03T14:33:50.950Z,9.30
2023-01-03T14:36:52.650Z,9.30
2023-01-03T14:39:58.829Z,9.30
2023-01-03T14:43:04.634Z,9.20
2023-01-03T14:46:11.189Z,9.30
2023-01-03T14:49:23.999Z,9.20
2023-01-03T14:52:31.289Z,9.20
2023-01-03T14:55:33.669Z,9.30
2023-01-03T14:58:40.603Z,9.30
2023-01-03T15:01:44.206Z,9.20
2023-01-03T15:04:54.773Z,9.30
2023-01-03T15:08:25.761Z,9.20
2023-01-03T15:11:55.913Z,9.20
2023-01-03T15:14:57.927Z,9.20
2023-01-03T15:18:03.380Z,9.20
2023-01-03T15:21:06.191Z,9.10
2023-01-03T15:24:22.610Z,9.10
2023-01-03T15:27:37.708Z,9.00
2023-01-03T15:30:49.543Z,9.00
2023-01-03T15:34:16.901Z,9.00
2023-01-03T15:37:23.856Z,9.00
2023-01-03T15:40:25.623Z,9.00
2023-01-03T15:43:36.395Z,8.90
2023-01-03T15:46:43.285Z,8.90
2023-01-03T15:49:49.028Z,9.00
2023-01-03T15:52:50.699Z,8.90
2023-01-03T15:55:56.379Z,8.90
2023-01-03T15:58:59.627Z,8.80
2023-01-03T16:02:02.217Z,8.80
2023-01-03T16:05:04.323Z,8.90
2023-01-03T16:08:26.627Z,8.80
2023-01-03T16:11:33.663Z,8.80
2023-01-03T16:14:38.466Z,8.70
2023-01-03T16:17:40.436Z,8.60
2023-01-03T16:20:42.194Z,8.60
2023-01-03T16:23:44.121Z,8.50
2023-01-03T16:26:46.738Z,8.50
2023-01-03T16:29:48.771Z,8.40
2023-01-03T16:32:50.515Z,8.40
2023-01-03T16:35:52.642Z,8.40
2023-01-03T16:38:54.339Z,8.30
2023-01-03T16:42:14.277Z,8.30
2023-01-03T16:45:17.293Z,8.20
2023-01-03T16:48:23.140Z,8.20
2023-01-03T16:51:31.115Z,8.20
2023-01-03T16:54:34.391Z,8.20
2023-01-03T16:57:36.040Z,8.20
2023-01-03T17:00:37.747Z,8.10
2023-01-03T17:03:42.259Z,8.10
2023-01-03T17:06:44.651Z,8.00
2023-01-03T17:09:48.146Z,8.00
2023-01-03T17:12:49.797Z,8.00
2023-01-03T17:15:51.607Z,8.00
2023-01-03T17:18:53.696Z,7.90
2023-01-03T17:21:55.687Z,7.90
2023-01-03T17:24:57.401Z,7.90
2023-01-03T17:28:00.162Z,7.90
2023-01-03T17:31:01.836Z,7.80
2023-01-03T17:34:17.256Z,7.80
2023-01-03T17:37:21.049Z,7.80
2023-01-03T17:40:32.911Z,7.80
2023-01-03T17:43:35.532Z,7.80
2023-01-03T17:46:55.812Z,7.70
2023-01-03T17:49:57.506Z,7.80
2023-01-03T17:53:01.592Z,7.80
2023-01-03T17:56:03.348Z,7.80
2023-01-03T17:59:05.040Z,7.70
2023-01-03T18:02:33.288Z,7.80
2023-01-03T18:05:35.323Z,7.80
2023-01-03T18:08:37.045Z,7.80
2023-01-03T18:11:38.784Z,7.90
2023-01-03T18:14:40.506Z,7.90
2023-01-03T18:17:42.222Z,7.90
2023-01-03T18:20:44.427Z,7.90
2023-01-03T18:23:46.296Z,7.90
2023-01-03T18:26:51.849Z,8.00
2023-01-03T18:29:53.817Z,8.00
2023-01-03T18:32:55.568Z,8.00
2023-01-03T18:35:57.464Z,8.10
2023-01-03T18:39:05.763Z,8.00
2023-01-03T18:42:30.720Z,8.10
2023-01-03T18:45:32.977Z,8.00
2023-01-03T18:48:34.640Z,8.00
2023-01-03T18:51:36.316Z,8.00
2023-01-03T18:54:38.802Z,8.10
2023-01-03T18:57:40.481Z,8.10
2023-01-03T19:00:42.240Z,8.00
2023-01-03T19:03:44.221Z,8.10
2023-01-03T19:06:49.255Z,8.10
2023-01-03T19:09:51.321Z,8.20
2023-01-03T19:12:56.339Z,8.10
2023-01-03T19:15:58.199Z,8.00
2023-01-03T19:19:00.425Z,8.10
2023-01-03T19:22:05.845Z,8.00
2023-01-03T19:25:13.120Z,8.00
2023-01-03T19:28:18.175Z,8.00
2023-01-03T19:31:19.849Z,8.00
2023-01-03T19:34:24.372Z,8.00
2023-01-03T19:37:26.104Z,8.00
2023-01-03T19:40:31.848Z,8.00
2023-01-03T19:43:33.923Z,8.00
2023-01-03T19:46:35.643Z,8.00
2023-01-03T19:49:37.346Z,8.00
2023-01-03T19:52:39.016Z,8.00
2023-01-03T19:55:47.375Z,8.00
2023-01-03T19:58:49.704Z,8.00
2023-01-03T20:02:23.390Z,8.00
2023-01-03T20:05:26.478Z,8.00
2023-01-03T20:08:28.261Z,7.90
2023-01-03T20:11:29.946Z,8.00
2023-01-03T20:14:31.651Z,8.00
2023-01-03T20:17:33.350Z,8.00
2023-01-03T20:20:35.229Z,7.90
2023-01-03T20:23:42.258Z,7.90
2023-01-03T20:26:43.958Z,7.90
2023-01-03T20:29:45.637Z,7.90
2023-01-03T20:32:47.396Z,7.90
2023-01-03T20:36:10.191Z,7.90
2023-01-03T20:39:36.016Z,7.90
2023-01-03T20:42:37.697Z,7.80
2023-01-03T20:45:40.534Z,7.80
2023-01-03T20:48:42.298Z,7.70
2023-01-03T20:51:44.004Z,7.70
2023-01-03T20:54:45.683Z,7.80
2023-01-03T20:57:47.593Z,7.70
2023-01-03T21:00:49.320Z,7.70
2023-01-03T21:03:51.165Z,7.70
2023-01-03T21:06:52.962Z,7.60
2023-01-03T21:09:54.630Z,7.60
2023-01-03T21:12:56.857Z,7.60
2023-01-03T21:15:58.642Z,7.60
2023-01-03T21:19:15.890Z,7.50
2023-01-03T21:22:20.142Z,7.50
2023-01-03T21:25:27.796Z,7.50
2023-01-03T21:28:29.446Z,7.50
2023-01-03T21:31:33.365Z,7.50
2023-01-03T21:34:35.098Z,7.50
2023-01-03T21:37:36.750Z,7.50
2023-01-03T21:40:38.463Z,7.60
2023-01-03T21:43:40.126Z,7.50
2023-01-03T21:46:42.189Z,7.50
2023-01-03T21:49:43.878Z,7.40
2023-01-03T21:52:45.722Z,7.40
2023-01-03T21:55:47.781Z,7.50
2023-01-03T21:58:49.912Z,7.50
2023-01-03T22:02:10.422Z,7.50
2023-01-03T22:05:12.169Z,7.50
2023-01-03T22:08:13.851Z,7.50
2023-01-03T22:11:15.578Z,7.60
2023-01-03T22:14:17.313Z,7.50
2023-01-03T22:17:19.035Z,7.50
2023-01-03T22:20:24.276Z,7.50
2023-01-03T22:23:25.924Z,7.50
2023-01-03T22:26:32.432Z,7.50
2023-01-03T22:29:36.040Z,7.50
2023-01-03T22:32:37.708Z,7.50
2023-01-03T22:35:39.363Z,7.60
2023-01-03T22:38:41.739Z,7.60
2023-01-03T22:41:43.435Z,7.60
2023-01-03T22:44:45.251Z,7.60
2023-01-03T22:47:46.917Z,7.70
2023-01-03T22:50:48.586Z,7.70
2023-01-03T22:53:50.225Z,7.70
2023-01-03T22:56:54.149Z,7.70
2023-01-03T22:59:55.856Z,7.80
2023-01-03T23:02:57.590Z,7.80
2023-01-03T23:06:07.035Z,7.70
2023-01-03T23:09:08.788Z,7.80
2023-01-03T23:12:30.140Z,7.80
2023-01-03T23:15:32.370Z,7.80
2023-01-03T23:18:34.080Z,7.80
2023-01-03T23:21:36.360Z,7.90
2023-01-03T23:24:38.030Z,7.80
2023-01-03T23:27:39.718Z,7.80
2023-01-03T23:30:41.446Z,7.80
2023-01-03T23:33:43.151Z,7.90
2023-01-03T23:36:44.933Z,7.90
2023-01-03T23:39:46.632Z,8.00
2023-01-03T23:42:48.337Z,8.00
2023-01-03T23:45:50.159Z,8.00
2023-01-03T23:48:56.745Z,8.10
2023-01-03T23:51:58.455Z,8.10
2023-01-03T23:55:03.790Z,8.10
2023-01-03T23:58:08.712Z,8.00
